sensor_id;sensor_type;location;lat;lon;timestamp;P1;durP1;ratioP1;P2;durP2;ratioP2
21305;SDS011;10812;51.838;5.838;2022-09-17T00:01:30;9.77;;;1.87;;
21305;SDS011;10812;51.838;5.838;2022-09-17T00:03:59;9.20;;;1.70;;
21305;SDS011;10812;51.838;5.838;2022-09-17T00:06:30;6.57;;;1.30;;
21305;SDS011;10812;51.838;5.838;2022-09-17T00:09:00;12.30;;;2.17;;
21305;SDS011;10812;51.838;5.838;2022-09-17T00:11:28;7.80;;;1.80;;
21305;SDS011;10812;51.838;5.838;2022-09-17T00:13:58;6.03;;;1.33;;
21305;SDS011;10812;51.838;5.838;2022-09-17T00:16:31;8.17;;;2.70;;
21305;SDS011;10812;51.838;5.838;2022-09-17T00:19:00;9.33;;;2.20;;
21305;SDS011;10812;51.838;5.838;2022-09-17T00:21:30;9.67;;;1.73;;
21305;SDS011;10812;51.838;5.838;2022-09-17T00:23:59;9.60;;;1.50;;
21305;SDS011;10812;51.838;5.838;2022-09-17T00:26:29;9.70;;;1.93;;
21305;SDS011;10812;51.838;5.838;2022-09-17T00:28:58;13.37;;;2.93;;
21305;SDS011;10812;51.838;5.838;2022-09-17T00:31:27;10.77;;;1.87;;
21305;SDS011;10812;51.838;5.838;2022-09-17T00:33:58;6.57;;;1.67;;
21305;SDS011;10812;51.838;5.838;2022-09-17T00:36:26;8.10;;;1.57;;
21305;SDS011;10812;51.838;5.838;2022-09-17T00:38:55;6.90;;;2.03;;
21305;SDS011;10812;51.838;5.838;2022-09-17T00:41:26;7.67;;;1.90;;
21305;SDS011;10812;51.838;5.838;2022-09-17T00:43:56;7.20;;;1.97;;
21305;SDS011;10812;51.838;5.838;2022-09-17T00:46:30;8.43;;;1.90;;
21305;SDS011;10812;51.838;5.838;2022-09-17T00:49:03;8.10;;;1.60;;
21305;SDS011;10812;51.838;5.838;2022-09-17T00:51:35;10.37;;;2.23;;
21305;SDS011;10812;51.838;5.838;2022-09-17T00:54:07;11.13;;;2.53;;
21305;SDS011;10812;51.838;5.838;2022-09-17T00:56:38;9.43;;;2.03;;
21305;SDS011;10812;51.838;5.838;2022-09-17T00:59:08;10.57;;;2.13;;
21305;SDS011;10812;51.838;5.838;2022-09-17T01:01:38;8.53;;;2.00;;
21305;SDS011;10812;51.838;5.838;2022-09-17T01:04:09;7.47;;;1.57;;
21305;SDS011;10812;51.838;5.838;2022-09-17T01:06:44;6.90;;;1.93;;
21305;SDS011;10812;51.838;5.838;2022-09-17T01:09:24;11.03;;;1.60;;
21305;SDS011;10812;51.838;5.838;2022-09-17T01:12:07;9.30;;;1.80;;
21305;SDS011;10812;51.838;5.838;2022-09-17T01:14:54;5.87;;;1.77;;
21305;SDS011;10812;51.838;5.838;2022-09-17T01:17:36;9.93;;;2.00;;
21305;SDS011;10812;51.838;5.838;2022-09-17T01:23:19;9.17;;;2.40;;
21305;SDS011;10812;51.838;5.838;2022-09-17T01:26:19;7.97;;;1.70;;
21305;SDS011;10812;51.838;5.838;2022-09-17T01:29:03;5.43;;;1.40;;
21305;SDS011;10812;51.838;5.838;2022-09-17T01:31:41;9.13;;;1.63;;
21305;SDS011;10812;51.838;5.838;2022-09-17T01:34:19;8.70;;;1.93;;
21305;SDS011;10812;51.838;5.838;2022-09-17T01:37:01;9.73;;;2.13;;
21305;SDS011;10812;51.838;5.838;2022-09-17T01:39:33;11.27;;;1.83;;
21305;SDS011;10812;51.838;5.838;2022-09-17T01:42:14;6.00;;;1.30;;
21305;SDS011;10812;51.838;5.838;2022-09-17T01:44:50;7.10;;;1.80;;
21305;SDS011;10812;51.838;5.838;2022-09-17T01:47:27;4.90;;;1.77;;
21305;SDS011;10812;51.838;5.838;2022-09-17T01:49:59;10.03;;;1.60;;
21305;SDS011;10812;51.838;5.838;2022-09-17T01:52:31;5.67;;;1.30;;
21305;SDS011;10812;51.838;5.838;2022-09-17T01:55:01;9.00;;;2.07;;
21305;SDS011;10812;51.838;5.838;2022-09-17T01:57:35;9.80;;;1.70;;
21305;SDS011;10812;51.838;5.838;2022-09-17T02:00:08;8.10;;;1.63;;
21305;SDS011;10812;51.838;5.838;2022-09-17T02:02:40;4.30;;;1.53;;
21305;SDS011;10812;51.838;5.838;2022-09-17T02:05:15;4.27;;;1.90;;
21305;SDS011;10812;51.838;5.838;2022-09-17T02:07:47;7.13;;;1.73;;
21305;SDS011;10812;51.838;5.838;2022-09-17T02:10:19;6.87;;;1.93;;
21305;SDS011;10812;51.838;5.838;2022-09-17T02:12:53;13.03;;;2.20;;
21305;SDS011;10812;51.838;5.838;2022-09-17T02:15:27;10.17;;;1.97;;
21305;SDS011;10812;51.838;5.838;2022-09-17T02:18:02;8.33;;;1.83;;
21305;SDS011;10812;51.838;5.838;2022-09-17T02:20:38;8.67;;;2.03;;
21305;SDS011;10812;51.838;5.838;2022-09-17T02:23:11;8.50;;;2.07;;
21305;SDS011;10812;51.838;5.838;2022-09-17T02:25:46;11.00;;;1.97;;
21305;SDS011;10812;51.838;5.838;2022-09-17T02:28:19;11.93;;;2.60;;
21305;SDS011;10812;51.838;5.838;2022-09-17T02:30:53;8.70;;;1.70;;
21305;SDS011;10812;51.838;5.838;2022-09-17T02:33:22;6.73;;;1.87;;
21305;SDS011;10812;51.838;5.838;2022-09-17T02:35:52;7.33;;;1.63;;
21305;SDS011;10812;51.838;5.838;2022-09-17T02:38:21;8.43;;;1.70;;
21305;SDS011;10812;51.838;5.838;2022-09-17T02:40:52;6.27;;;1.60;;
21305;SDS011;10812;51.838;5.838;2022-09-17T02:43:28;8.30;;;1.73;;
21305;SDS011;10812;51.838;5.838;2022-09-17T02:46:08;9.43;;;1.90;;
21305;SDS011;10812;51.838;5.838;2022-09-17T02:51:48;8.20;;;1.80;;
21305;SDS011;10812;51.838;5.838;2022-09-17T02:54:23;8.57;;;2.50;;
21305;SDS011;10812;51.838;5.838;2022-09-17T02:56:57;6.47;;;1.60;;
21305;SDS011;10812;51.838;5.838;2022-09-17T02:59:37;8.83;;;1.70;;
21305;SDS011;10812;51.838;5.838;2022-09-17T03:11:25;7.43;;;1.93;;
21305;SDS011;10812;51.838;5.838;2022-09-17T03:13:54;6.87;;;1.83;;
21305;SDS011;10812;51.838;5.838;2022-09-17T03:16:24;9.50;;;1.70;;
21305;SDS011;10812;51.838;5.838;2022-09-17T03:18:52;9.60;;;1.73;;
21305;SDS011;10812;51.838;5.838;2022-09-17T03:21:20;8.37;;;1.87;;
21305;SDS011;10812;51.838;5.838;2022-09-17T03:23:48;6.23;;;1.40;;
21305;SDS011;10812;51.838;5.838;2022-09-17T03:26:16;6.17;;;1.87;;
21305;SDS011;10812;51.838;5.838;2022-09-17T03:28:45;5.17;;;1.40;;
21305;SDS011;10812;51.838;5.838;2022-09-17T03:31:14;9.43;;;1.77;;
21305;SDS011;10812;51.838;5.838;2022-09-17T03:33:42;9.30;;;2.07;;
21305;SDS011;10812;51.838;5.838;2022-09-17T03:36:10;7.23;;;1.50;;
21305;SDS011;10812;51.838;5.838;2022-09-17T03:38:38;5.30;;;1.93;;
21305;SDS011;10812;51.838;5.838;2022-09-17T03:41:06;5.43;;;1.80;;
21305;SDS011;10812;51.838;5.838;2022-09-17T03:43:34;18.37;;;1.77;;
21305;SDS011;10812;51.838;5.838;2022-09-17T03:46:04;5.10;;;1.20;;
21305;SDS011;10812;51.838;5.838;2022-09-17T03:48:32;4.67;;;1.43;;
21305;SDS011;10812;51.838;5.838;2022-09-17T03:51:02;7.03;;;1.60;;
21305;SDS011;10812;51.838;5.838;2022-09-17T03:53:30;6.40;;;1.93;;
21305;SDS011;10812;51.838;5.838;2022-09-17T03:55:59;5.67;;;1.37;;
21305;SDS011;10812;51.838;5.838;2022-09-17T03:58:29;8.67;;;2.63;;
21305;SDS011;10812;51.838;5.838;2022-09-17T04:00:57;11.07;;;1.60;;
21305;SDS011;10812;51.838;5.838;2022-09-17T04:03:27;5.77;;;1.10;;
21305;SDS011;10812;51.838;5.838;2022-09-17T04:05:55;5.87;;;1.33;;
21305;SDS011;10812;51.838;5.838;2022-09-17T04:08:23;7.00;;;1.43;;
21305;SDS011;10812;51.838;5.838;2022-09-17T04:10:51;10.13;;;1.63;;
21305;SDS011;10812;51.838;5.838;2022-09-17T04:13:20;6.27;;;1.80;;
21305;SDS011;10812;51.838;5.838;2022-09-17T04:15:48;8.73;;;2.00;;
21305;SDS011;10812;51.838;5.838;2022-09-17T04:18:17;10.03;;;2.00;;
21305;SDS011;10812;51.838;5.838;2022-09-17T04:20:46;7.90;;;1.60;;
21305;SDS011;10812;51.838;5.838;2022-09-17T04:23:14;7.30;;;1.17;;
21305;SDS011;10812;51.838;5.838;2022-09-17T04:25:42;8.03;;;1.67;;
21305;SDS011;10812;51.838;5.838;2022-09-17T04:28:11;8.23;;;1.70;;
21305;SDS011;10812;51.838;5.838;2022-09-17T04:30:39;8.37;;;1.70;;
21305;SDS011;10812;51.838;5.838;2022-09-17T04:33:08;9.03;;;1.80;;
21305;SDS011;10812;51.838;5.838;2022-09-17T04:35:36;6.67;;;1.20;;
21305;SDS011;10812;51.838;5.838;2022-09-17T04:38:06;4.70;;;1.60;;
21305;SDS011;10812;51.838;5.838;2022-09-17T04:40:35;8.37;;;2.47;;
21305;SDS011;10812;51.838;5.838;2022-09-17T04:43:03;3.83;;;1.30;;
21305;SDS011;10812;51.838;5.838;2022-09-17T04:45:31;5.33;;;1.47;;
21305;SDS011;10812;51.838;5.838;2022-09-17T04:47:59;5.07;;;1.37;;
21305;SDS011;10812;51.838;5.838;2022-09-17T04:50:28;8.43;;;1.50;;
21305;SDS011;10812;51.838;5.838;2022-09-17T04:52:56;4.30;;;1.00;;
21305;SDS011;10812;51.838;5.838;2022-09-17T04:55:26;9.53;;;1.80;;
21305;SDS011;10812;51.838;5.838;2022-09-17T04:57:54;4.70;;;1.20;;
21305;SDS011;10812;51.838;5.838;2022-09-17T05:00:22;5.33;;;1.60;;
21305;SDS011;10812;51.838;5.838;2022-09-17T05:02:51;9.97;;;2.20;;
21305;SDS011;10812;51.838;5.838;2022-09-17T05:05:20;8.03;;;1.67;;
21305;SDS011;10812;51.838;5.838;2022-09-17T05:07:49;6.90;;;1.53;;
21305;SDS011;10812;51.838;5.838;2022-09-17T05:10:18;5.70;;;1.50;;
21305;SDS011;10812;51.838;5.838;2022-09-17T05:12:49;3.23;;;1.13;;
21305;SDS011;10812;51.838;5.838;2022-09-17T05:15:18;5.73;;;1.40;;
21305;SDS011;10812;51.838;5.838;2022-09-17T05:17:47;4.10;;;1.43;;
21305;SDS011;10812;51.838;5.838;2022-09-17T05:20:15;9.37;;;1.53;;
21305;SDS011;10812;51.838;5.838;2022-09-17T05:22:44;5.40;;;1.27;;
21305;SDS011;10812;51.838;5.838;2022-09-17T05:25:14;7.97;;;1.13;;
21305;SDS011;10812;51.838;5.838;2022-09-17T05:27:43;9.17;;;1.60;;
21305;SDS011;10812;51.838;5.838;2022-09-17T05:30:13;6.97;;;1.93;;
21305;SDS011;10812;51.838;5.838;2022-09-17T05:32:41;7.70;;;1.67;;
21305;SDS011;10812;51.838;5.838;2022-09-17T05:35:09;5.13;;;1.33;;
21305;SDS011;10812;51.838;5.838;2022-09-17T05:37:37;6.77;;;1.23;;
21305;SDS011;10812;51.838;5.838;2022-09-17T05:40:06;7.00;;;1.20;;
21305;SDS011;10812;51.838;5.838;2022-09-17T05:42:35;8.90;;;2.47;;
21305;SDS011;10812;51.838;5.838;2022-09-17T05:45:04;7.37;;;1.30;;
21305;SDS011;10812;51.838;5.838;2022-09-17T05:47:34;7.17;;;1.27;;
21305;SDS011;10812;51.838;5.838;2022-09-17T05:50:03;4.53;;;1.10;;
21305;SDS011;10812;51.838;5.838;2022-09-17T05:52:31;8.23;;;1.83;;
21305;SDS011;10812;51.838;5.838;2022-09-17T05:55:00;5.23;;;1.23;;
21305;SDS011;10812;51.838;5.838;2022-09-17T05:57:28;14.70;;;1.80;;
21305;SDS011;10812;51.838;5.838;2022-09-17T05:59:56;6.87;;;1.97;;
21305;SDS011;10812;51.838;5.838;2022-09-17T06:02:24;5.23;;;1.00;;
21305;SDS011;10812;51.838;5.838;2022-09-17T06:04:54;5.73;;;1.53;;
21305;SDS011;10812;51.838;5.838;2022-09-17T06:07:26;7.50;;;1.33;;
21305;SDS011;10812;51.838;5.838;2022-09-17T06:09:54;6.17;;;1.37;;
21305;SDS011;10812;51.838;5.838;2022-09-17T06:12:22;4.23;;;1.33;;
21305;SDS011;10812;51.838;5.838;2022-09-17T06:14:50;5.57;;;1.10;;
21305;SDS011;10812;51.838;5.838;2022-09-17T06:32:43;4.10;;;1.23;;
21305;SDS011;10812;51.838;5.838;2022-09-17T06:35:11;5.70;;;0.98;;
21305;SDS011;10812;51.838;5.838;2022-09-17T06:37:40;3.55;;;1.00;;
21305;SDS011;10812;51.838;5.838;2022-09-17T06:40:08;2.42;;;1.02;;
21305;SDS011;10812;51.838;5.838;2022-09-17T06:42:37;3.67;;;0.70;;
21305;SDS011;10812;51.838;5.838;2022-09-17T06:45:05;4.83;;;1.20;;
21305;SDS011;10812;51.838;5.838;2022-09-17T06:47:41;3.65;;;1.40;;
21305;SDS011;10812;51.838;5.838;2022-09-17T06:50:10;6.57;;;1.30;;
21305;SDS011;10812;51.838;5.838;2022-09-17T06:52:38;4.03;;;1.00;;
21305;SDS011;10812;51.838;5.838;2022-09-17T06:55:13;5.25;;;1.10;;
21305;SDS011;10812;51.838;5.838;2022-09-17T06:57:42;6.25;;;1.13;;
21305;SDS011;10812;51.838;5.838;2022-09-17T07:00:10;3.13;;;0.82;;
21305;SDS011;10812;51.838;5.838;2022-09-17T07:02:39;2.40;;;1.10;;
21305;SDS011;10812;51.838;5.838;2022-09-17T07:05:08;3.78;;;1.20;;
21305;SDS011;10812;51.838;5.838;2022-09-17T07:07:37;3.88;;;1.27;;
21305;SDS011;10812;51.838;5.838;2022-09-17T07:10:06;4.22;;;0.90;;
21305;SDS011;10812;51.838;5.838;2022-09-17T07:12:38;4.25;;;0.80;;
21305;SDS011;10812;51.838;5.838;2022-09-17T07:15:11;3.08;;;1.08;;
21305;SDS011;10812;51.838;5.838;2022-09-17T07:17:41;3.17;;;0.82;;
21305;SDS011;10812;51.838;5.838;2022-09-17T07:20:10;3.22;;;0.95;;
21305;SDS011;10812;51.838;5.838;2022-09-17T07:22:40;3.42;;;1.13;;
21305;SDS011;10812;51.838;5.838;2022-09-17T07:25:08;2.92;;;0.98;;
21305;SDS011;10812;51.838;5.838;2022-09-17T07:27:37;3.80;;;1.10;;
21305;SDS011;10812;51.838;5.838;2022-09-17T07:30:05;5.25;;;1.40;;
21305;SDS011;10812;51.838;5.838;2022-09-17T07:32:34;3.40;;;0.85;;
21305;SDS011;10812;51.838;5.838;2022-09-17T07:35:05;3.85;;;1.20;;
21305;SDS011;10812;51.838;5.838;2022-09-17T07:37:33;2.70;;;1.02;;
21305;SDS011;10812;51.838;5.838;2022-09-17T07:40:03;4.03;;;0.90;;
21305;SDS011;10812;51.838;5.838;2022-09-17T07:42:34;4.45;;;1.00;;
21305;SDS011;10812;51.838;5.838;2022-09-17T07:45:02;2.17;;;0.80;;
21305;SDS011;10812;51.838;5.838;2022-09-17T07:47:31;1.67;;;0.85;;
21305;SDS011;10812;51.838;5.838;2022-09-17T07:50:06;2.67;;;0.80;;
21305;SDS011;10812;51.838;5.838;2022-09-17T07:52:35;3.53;;;1.00;;
21305;SDS011;10812;51.838;5.838;2022-09-17T07:55:05;5.32;;;1.60;;
21305;SDS011;10812;51.838;5.838;2022-09-17T07:57:33;3.65;;;0.80;;
21305;SDS011;10812;51.838;5.838;2022-09-17T08:03:53;2.60;;;0.98;;
21305;SDS011;10812;51.838;5.838;2022-09-17T08:06:22;3.25;;;0.85;;
21305;SDS011;10812;51.838;5.838;2022-09-17T08:08:53;3.60;;;1.10;;
21305;SDS011;10812;51.838;5.838;2022-09-17T08:11:25;1.27;;;0.70;;
21305;SDS011;10812;51.838;5.838;2022-09-17T08:14:14;3.92;;;0.80;;
21305;SDS011;10812;51.838;5.838;2022-09-17T08:16:42;2.25;;;1.00;;
21305;SDS011;10812;51.838;5.838;2022-09-17T08:19:12;4.97;;;0.77;;
21305;SDS011;10812;51.838;5.838;2022-09-17T08:21:40;3.33;;;0.68;;
21305;SDS011;10812;51.838;5.838;2022-09-17T08:24:08;2.88;;;1.10;;
21305;SDS011;10812;51.838;5.838;2022-09-17T08:26:38;3.58;;;0.80;;
21305;SDS011;10812;51.838;5.838;2022-09-17T08:29:07;2.47;;;0.80;;
21305;SDS011;10812;51.838;5.838;2022-09-17T08:31:36;2.70;;;0.85;;
21305;SDS011;10812;51.838;5.838;2022-09-17T08:34:06;3.85;;;0.73;;
21305;SDS011;10812;51.838;5.838;2022-09-17T08:36:35;5.80;;;0.90;;
21305;SDS011;10812;51.838;5.838;2022-09-17T08:39:03;1.63;;;0.70;;
21305;SDS011;10812;51.838;5.838;2022-09-17T08:44:43;2.33;;;1.10;;
21305;SDS011;10812;51.838;5.838;2022-09-17T08:47:19;3.38;;;1.02;;
21305;SDS011;10812;51.838;5.838;2022-09-17T08:49:53;2.40;;;1.10;;
21305;SDS011;10812;51.838;5.838;2022-09-17T08:55:39;2.08;;;0.70;;
21305;SDS011;10812;51.838;5.838;2022-09-17T08:58:24;3.28;;;1.10;;
21305;SDS011;10812;51.838;5.838;2022-09-17T09:04:13;2.97;;;1.20;;
21305;SDS011;10812;51.838;5.838;2022-09-17T09:07:00;6.15;;;1.13;;
21305;SDS011;10812;51.838;5.838;2022-09-17T09:09:34;3.38;;;0.90;;
21305;SDS011;10812;51.838;5.838;2022-09-17T09:12:08;2.17;;;0.68;;
21305;SDS011;10812;51.838;5.838;2022-09-17T09:14:44;2.72;;;0.60;;
21305;SDS011;10812;51.838;5.838;2022-09-17T09:17:17;1.98;;;0.60;;
21305;SDS011;10812;51.838;5.838;2022-09-17T09:19:48;5.73;;;0.67;;
21305;SDS011;10812;51.838;5.838;2022-09-17T09:22:24;1.30;;;0.50;;
21305;SDS011;10812;51.838;5.838;2022-09-17T09:25:05;3.40;;;0.77;;
21305;SDS011;10812;51.838;5.838;2022-09-17T09:27:46;1.77;;;0.60;;
21305;SDS011;10812;51.838;5.838;2022-09-17T09:30:38;1.25;;;0.50;;
21305;SDS011;10812;51.838;5.838;2022-09-17T09:33:13;1.90;;;0.60;;
21305;SDS011;10812;51.838;5.838;2022-09-17T09:35:43;1.65;;;0.50;;
21305;SDS011;10812;51.838;5.838;2022-09-17T09:38:14;1.80;;;0.47;;
21305;SDS011;10812;51.838;5.838;2022-09-17T09:40:59;3.08;;;1.10;;
21305;SDS011;10812;51.838;5.838;2022-09-17T09:43:38;3.38;;;0.77;;
21305;SDS011;10812;51.838;5.838;2022-09-17T09:46:34;2.33;;;0.75;;
21305;SDS011;10812;51.838;5.838;2022-09-17T09:49:26;2.97;;;0.63;;
21305;SDS011;10812;51.838;5.838;2022-09-17T09:52:09;2.67;;;0.73;;
21305;SDS011;10812;51.838;5.838;2022-09-17T09:54:50;2.17;;;0.60;;
21305;SDS011;10812;51.838;5.838;2022-09-17T09:57:31;2.63;;;0.57;;
21305;SDS011;10812;51.838;5.838;2022-09-17T10:00:26;2.60;;;0.70;;
21305;SDS011;10812;51.838;5.838;2022-09-17T10:03:00;2.17;;;0.55;;
21305;SDS011;10812;51.838;5.838;2022-09-17T10:05:33;3.17;;;0.98;;
21305;SDS011;10812;51.838;5.838;2022-09-17T10:08:09;2.83;;;1.15;;
21305;SDS011;10812;51.838;5.838;2022-09-17T10:10:41;4.25;;;0.73;;
21305;SDS011;10812;51.838;5.838;2022-09-17T10:13:21;3.05;;;1.00;;
21305;SDS011;10812;51.838;5.838;2022-09-17T10:15:49;2.97;;;0.60;;
21305;SDS011;10812;51.838;5.838;2022-09-17T10:18:19;3.15;;;0.98;;
21305;SDS011;10812;51.838;5.838;2022-09-17T10:20:50;2.35;;;0.80;;
21305;SDS011;10812;51.838;5.838;2022-09-17T10:23:19;4.43;;;1.05;;
21305;SDS011;10812;51.838;5.838;2022-09-17T10:25:48;3.78;;;0.68;;
21305;SDS011;10812;51.838;5.838;2022-09-17T10:31:10;2.80;;;0.75;;
21305;SDS011;10812;51.838;5.838;2022-09-17T10:33:49;3.58;;;0.73;;
21305;SDS011;10812;51.838;5.838;2022-09-17T10:39:17;4.90;;;0.85;;
21305;SDS011;10812;51.838;5.838;2022-09-17T10:41:52;2.20;;;0.90;;
21305;SDS011;10812;51.838;5.838;2022-09-17T10:44:21;4.20;;;1.10;;
21305;SDS011;10812;51.838;5.838;2022-09-17T10:46:50;3.27;;;0.80;;
21305;SDS011;10812;51.838;5.838;2022-09-17T10:49:33;1.60;;;0.60;;
21305;SDS011;10812;51.838;5.838;2022-09-17T10:52:07;1.73;;;0.70;;
21305;SDS011;10812;51.838;5.838;2022-09-17T10:54:51;3.30;;;0.93;;
21305;SDS011;10812;51.838;5.838;2022-09-17T10:57:41;3.63;;;0.80;;
21305;SDS011;10812;51.838;5.838;2022-09-17T11:00:27;2.00;;;0.90;;
21305;SDS011;10812;51.838;5.838;2022-09-17T11:06:02;1.70;;;0.70;;
21305;SDS011;10812;51.838;5.838;2022-09-17T11:08:51;2.43;;;0.40;;
21305;SDS011;10812;51.838;5.838;2022-09-17T11:11:28;3.50;;;0.70;;
21305;SDS011;10812;51.838;5.838;2022-09-17T11:14:09;1.13;;;0.50;;
21305;SDS011;10812;51.838;5.838;2022-09-17T11:16:46;1.73;;;0.57;;
21305;SDS011;10812;51.838;5.838;2022-09-17T11:19:23;3.47;;;0.87;;
21305;SDS011;10812;51.838;5.838;2022-09-17T11:22:06;3.23;;;0.70;;
21305;SDS011;10812;51.838;5.838;2022-09-17T11:24:50;1.90;;;0.50;;
21305;SDS011;10812;51.838;5.838;2022-09-17T11:27:46;2.77;;;0.57;;
21305;SDS011;10812;51.838;5.838;2022-09-17T11:30:27;2.60;;;0.90;;
21305;SDS011;10812;51.838;5.838;2022-09-17T11:33:03;2.60;;;0.60;;
21305;SDS011;10812;51.838;5.838;2022-09-17T11:35:46;2.60;;;0.80;;
21305;SDS011;10812;51.838;5.838;2022-09-17T11:38:19;3.83;;;1.00;;
21305;SDS011;10812;51.838;5.838;2022-09-17T11:40:51;2.13;;;0.60;;
21305;SDS011;10812;51.838;5.838;2022-09-17T11:43:28;3.60;;;1.27;;
21305;SDS011;10812;51.838;5.838;2022-09-17T11:46:01;3.20;;;1.03;;
21305;SDS011;10812;51.838;5.838;2022-09-17T11:48:35;4.13;;;0.80;;
21305;SDS011;10812;51.838;5.838;2022-09-17T11:51:16;1.50;;;0.70;;
21305;SDS011;10812;51.838;5.838;2022-09-17T11:53:56;5.03;;;1.73;;
21305;SDS011;10812;51.838;5.838;2022-09-17T11:56:33;6.67;;;1.43;;
21305;SDS011;10812;51.838;5.838;2022-09-17T11:59:08;4.93;;;0.70;;
21305;SDS011;10812;51.838;5.838;2022-09-17T12:01:43;3.67;;;1.93;;
21305;SDS011;10812;51.838;5.838;2022-09-17T12:04:18;2.93;;;1.07;;
21305;SDS011;10812;51.838;5.838;2022-09-17T12:06:59;2.60;;;1.13;;
21305;SDS011;10812;51.838;5.838;2022-09-17T12:09:35;2.57;;;0.90;;
21305;SDS011;10812;51.838;5.838;2022-09-17T12:12:11;6.70;;;1.47;;
21305;SDS011;10812;51.838;5.838;2022-09-17T12:15:05;4.73;;;1.47;;
21305;SDS011;10812;51.838;5.838;2022-09-17T12:17:42;7.07;;;1.40;;
21305;SDS011;10812;51.838;5.838;2022-09-17T12:20:16;8.67;;;1.20;;
21305;SDS011;10812;51.838;5.838;2022-09-17T12:22:50;3.70;;;1.00;;
21305;SDS011;10812;51.838;5.838;2022-09-17T12:25:22;4.43;;;1.30;;
21305;SDS011;10812;51.838;5.838;2022-09-17T12:27:53;3.47;;;1.10;;
21305;SDS011;10812;51.838;5.838;2022-09-17T12:30:26;5.67;;;0.83;;
21305;SDS011;10812;51.838;5.838;2022-09-17T12:33:04;5.20;;;0.80;;
21305;SDS011;10812;51.838;5.838;2022-09-17T12:42:03;4.20;;;1.10;;
21305;SDS011;10812;51.838;5.838;2022-09-17T12:44:48;5.10;;;1.30;;
21305;SDS011;10812;51.838;5.838;2022-09-17T12:47:40;5.10;;;1.57;;
21305;SDS011;10812;51.838;5.838;2022-09-17T12:50:20;8.30;;;2.73;;
21305;SDS011;10812;51.838;5.838;2022-09-17T12:53:01;4.63;;;1.10;;
21305;SDS011;10812;51.838;5.838;2022-09-17T12:55:53;6.07;;;0.87;;
21305;SDS011;10812;51.838;5.838;2022-09-17T12:58:46;2.77;;;0.80;;
21305;SDS011;10812;51.838;5.838;2022-09-17T13:01:35;4.40;;;1.10;;
21305;SDS011;10812;51.838;5.838;2022-09-17T13:04:12;1.33;;;0.80;;
21305;SDS011;10812;51.838;5.838;2022-09-17T13:07:24;4.87;;;0.90;;
21305;SDS011;10812;51.838;5.838;2022-09-17T13:13:24;1.53;;;0.87;;
21305;SDS011;10812;51.838;5.838;2022-09-17T13:15:59;1.73;;;0.93;;
21305;SDS011;10812;51.838;5.838;2022-09-17T13:18:43;1.13;;;0.53;;
21305;SDS011;10812;51.838;5.838;2022-09-17T13:21:41;3.90;;;0.97;;
21305;SDS011;10812;51.838;5.838;2022-09-17T13:24:16;2.70;;;0.60;;
21305;SDS011;10812;51.838;5.838;2022-09-17T13:26:45;2.43;;;0.70;;
21305;SDS011;10812;51.838;5.838;2022-09-17T13:38:16;3.60;;;0.80;;
21305;SDS011;10812;51.838;5.838;2022-09-17T13:40:49;6.53;;;1.07;;
21305;SDS011;10812;51.838;5.838;2022-09-17T13:43:19;2.63;;;1.10;;
21305;SDS011;10812;51.838;5.838;2022-09-17T13:46:08;2.90;;;0.87;;
21305;SDS011;10812;51.838;5.838;2022-09-17T13:48:49;4.67;;;1.10;;
21305;SDS011;10812;51.838;5.838;2022-09-17T13:54:11;7.93;;;1.90;;
21305;SDS011;10812;51.838;5.838;2022-09-17T13:56:42;4.80;;;1.20;;
21305;SDS011;10812;51.838;5.838;2022-09-17T13:59:13;4.27;;;1.10;;
21305;SDS011;10812;51.838;5.838;2022-09-17T14:02:00;4.43;;;1.10;;
21305;SDS011;10812;51.838;5.838;2022-09-17T14:04:33;4.67;;;0.80;;
21305;SDS011;10812;51.838;5.838;2022-09-17T14:07:34;5.00;;;0.90;;
21305;SDS011;10812;51.838;5.838;2022-09-17T14:10:30;4.57;;;1.20;;
21305;SDS011;10812;51.838;5.838;2022-09-17T14:15:59;8.50;;;1.57;;
21305;SDS011;10812;51.838;5.838;2022-09-17T14:18:35;4.20;;;1.27;;
21305;SDS011;10812;51.838;5.838;2022-09-17T14:21:15;7.63;;;1.40;;
21305;SDS011;10812;51.838;5.838;2022-09-17T14:23:54;5.60;;;1.27;;
21305;SDS011;10812;51.838;5.838;2022-09-17T14:26:38;5.80;;;1.40;;
21305;SDS011;10812;51.838;5.838;2022-09-17T14:29:31;4.97;;;1.20;;
21305;SDS011;10812;51.838;5.838;2022-09-17T14:32:17;6.60;;;1.37;;
21305;SDS011;10812;51.838;5.838;2022-09-17T14:34:48;5.80;;;1.20;;
21305;SDS011;10812;51.838;5.838;2022-09-17T14:37:18;3.97;;;0.77;;
21305;SDS011;10812;51.838;5.838;2022-09-17T14:39:48;4.10;;;1.00;;
21305;SDS011;10812;51.838;5.838;2022-09-17T14:42:19;3.17;;;1.00;;
21305;SDS011;10812;51.838;5.838;2022-09-17T14:44:53;4.00;;;1.00;;
21305;SDS011;10812;51.838;5.838;2022-09-17T14:47:25;5.80;;;0.90;;
21305;SDS011;10812;51.838;5.838;2022-09-17T14:49:53;4.10;;;1.70;;
21305;SDS011;10812;51.838;5.838;2022-09-17T14:52:24;5.17;;;1.33;;
21305;SDS011;10812;51.838;5.838;2022-09-17T14:57:45;4.17;;;0.87;;
21305;SDS011;10812;51.838;5.838;2022-09-17T15:00:19;1.93;;;0.63;;
21305;SDS011;10812;51.838;5.838;2022-09-17T15:02:49;6.03;;;0.97;;
21305;SDS011;10812;51.838;5.838;2022-09-17T15:05:23;3.97;;;0.90;;
21305;SDS011;10812;51.838;5.838;2022-09-17T15:08:05;2.53;;;1.07;;
21305;SDS011;10812;51.838;5.838;2022-09-17T15:10:38;2.17;;;0.93;;
21305;SDS011;10812;51.838;5.838;2022-09-17T15:13:14;3.30;;;0.80;;
21305;SDS011;10812;51.838;5.838;2022-09-17T15:15:50;2.87;;;1.73;;
21305;SDS011;10812;51.838;5.838;2022-09-17T15:18:23;5.20;;;1.90;;
21305;SDS011;10812;51.838;5.838;2022-09-17T15:21:03;4.10;;;0.97;;
21305;SDS011;10812;51.838;5.838;2022-09-17T15:23:38;6.03;;;1.63;;
21305;SDS011;10812;51.838;5.838;2022-09-17T15:26:07;9.60;;;1.60;;
21305;SDS011;10812;51.838;5.838;2022-09-17T15:28:38;8.13;;;1.53;;
21305;SDS011;10812;51.838;5.838;2022-09-17T15:31:12;3.93;;;1.40;;
21305;SDS011;10812;51.838;5.838;2022-09-17T15:33:44;4.33;;;1.00;;
21305;SDS011;10812;51.838;5.838;2022-09-17T15:36:17;2.73;;;1.00;;
21305;SDS011;10812;51.838;5.838;2022-09-17T15:38:49;6.97;;;1.23;;
21305;SDS011;10812;51.838;5.838;2022-09-17T15:44:05;5.57;;;1.37;;
21305;SDS011;10812;51.838;5.838;2022-09-17T15:47:20;5.97;;;1.33;;
21305;SDS011;10812;51.838;5.838;2022-09-17T15:50:11;6.83;;;1.93;;
21305;SDS011;10812;51.838;5.838;2022-09-17T15:52:41;5.17;;;1.30;;
21305;SDS011;10812;51.838;5.838;2022-09-17T15:55:30;7.77;;;1.20;;
21305;SDS011;10812;51.838;5.838;2022-09-17T15:58:01;8.30;;;1.83;;
21305;SDS011;10812;51.838;5.838;2022-09-17T16:00:31;6.70;;;1.87;;
21305;SDS011;10812;51.838;5.838;2022-09-17T16:03:14;4.43;;;1.10;;
21305;SDS011;10812;51.838;5.838;2022-09-17T16:06:34;4.17;;;1.10;;
21305;SDS011;10812;51.838;5.838;2022-09-17T16:09:11;6.00;;;1.83;;
21305;SDS011;10812;51.838;5.838;2022-09-17T16:12:21;6.33;;;1.30;;
21305;SDS011;10812;51.838;5.838;2022-09-17T16:14:50;5.67;;;1.33;;
21305;SDS011;10812;51.838;5.838;2022-09-17T16:17:24;5.00;;;1.33;;
21305;SDS011;10812;51.838;5.838;2022-09-17T16:20:04;3.87;;;0.90;;
21305;SDS011;10812;51.838;5.838;2022-09-17T16:22:35;2.83;;;1.00;;
21305;SDS011;10812;51.838;5.838;2022-09-17T16:25:03;7.23;;;1.20;;
21305;SDS011;10812;51.838;5.838;2022-09-17T16:27:34;6.63;;;1.30;;
21305;SDS011;10812;51.838;5.838;2022-09-17T16:30:12;4.17;;;1.27;;
21305;SDS011;10812;51.838;5.838;2022-09-17T16:32:42;4.83;;;1.03;;
21305;SDS011;10812;51.838;5.838;2022-09-17T16:35:11;5.73;;;1.33;;
21305;SDS011;10812;51.838;5.838;2022-09-17T16:37:43;4.00;;;1.57;;
21305;SDS011;10812;51.838;5.838;2022-09-17T16:40:14;4.40;;;0.97;;
21305;SDS011;10812;51.838;5.838;2022-09-17T16:42:43;3.83;;;1.23;;
21305;SDS011;10812;51.838;5.838;2022-09-17T16:45:12;3.57;;;1.03;;
21305;SDS011;10812;51.838;5.838;2022-09-17T16:47:41;4.40;;;1.23;;
21305;SDS011;10812;51.838;5.838;2022-09-17T16:50:10;2.67;;;1.10;;
21305;SDS011;10812;51.838;5.838;2022-09-17T16:52:40;7.97;;;1.70;;